Log Cabin, Louisiana
Current Conditions -  °F | °C
As of 10:55 PM on Thursday 30 Oct 2014 (Local Time) from KBQP Reporting Station
Clear Clear  
Wind Chill: 51°   Ceiling: Unl
Heat Index: 51°   Visibility: 10mi
Dew Point: 49°   Wind: 0mph
Humidity: 94%   Direction: NA
Pressure: 30.08"   Gusts: NA
Location:  32.8721°N, 91.912°W
Report Text: KBQP 310355Z AUTO 00000KT 10SM CLR 10/09 A3008 RMK AO2 T01030093
Loading
Personal Weather Stations






























Interactive Weather Map
Tropical Storm Tracking
New forecast layout! Learn more

10-Day Weather Forecast

Advertisements
Track Severe Weather on mobile